createdAt,value
2019-03-16T00:01:13.446Z,7.90
2019-03-16T00:03:42.417Z,7.90
2019-03-16T00:06:11.341Z,7.90
2019-03-16T00:08:40.206Z,7.80
2019-03-16T00:11:09.236Z,7.80
2019-03-16T00:13:38.310Z,7.80
2019-03-16T00:16:07.181Z,7.80
2019-03-16T00:18:36.260Z,7.80
2019-03-16T00:21:05.337Z,7.80
2019-03-16T00:23:34.236Z,7.80
2019-03-16T00:26:03.086Z,7.80
2019-03-16T00:28:31.942Z,7.80
2019-03-16T00:31:02.592Z,7.80
2019-03-16T00:33:31.505Z,7.80
2019-03-16T00:36:00.475Z,7.80
2019-03-16T00:38:29.479Z,7.80
2019-03-16T00:40:58.403Z,7.80
2019-03-16T00:43:27.398Z,7.80
2019-03-16T00:45:56.363Z,7.80
2019-03-16T00:48:25.301Z,7.80
2019-03-16T00:50:54.207Z,7.80
2019-03-16T00:53:23.507Z,7.80
2019-03-16T00:55:52.401Z,7.80
2019-03-16T00:58:21.318Z,7.80
2019-03-16T01:00:50.326Z,7.80
2019-03-16T01:03:19.153Z,7.80
2019-03-16T01:05:48.089Z,7.80
2019-03-16T01:08:17.026Z,7.80
2019-03-16T01:10:45.958Z,7.80
2019-03-16T01:13:14.865Z,7.80
2019-03-16T01:15:44.055Z,7.80
2019-03-16T01:18:12.915Z,7.80
2019-03-16T01:20:41.740Z,7.80
2019-03-16T01:23:10.647Z,7.80
2019-03-16T01:25:39.537Z,7.80
2019-03-16T01:28:08.710Z,7.80
2019-03-16T01:30:37.666Z,7.80
2019-03-16T01:33:06.498Z,7.80
2019-03-16T01:35:35.362Z,7.80
2019-03-16T01:38:04.258Z,7.80
2019-03-16T01:40:33.100Z,7.80
2019-03-16T01:43:02.242Z,7.80
2019-03-16T01:45:31.166Z,7.80
2019-03-16T01:48:00.000Z,7.80
2019-03-16T01:50:28.866Z,7.80
2019-03-16T01:52:57.807Z,7.90
2019-03-16T01:55:26.893Z,7.90
2019-03-16T01:57:55.696Z,7.90
2019-03-16T02:00:24.693Z,7.80
2019-03-16T02:02:55.887Z,7.90
2019-03-16T02:05:24.486Z,7.80
2019-03-16T02:07:53.484Z,7.90
2019-03-16T02:10:22.417Z,7.90
2019-03-16T02:12:51.575Z,7.90
2019-03-16T02:15:20.698Z,7.90
2019-03-16T02:17:49.761Z,7.90
2019-03-16T02:20:18.750Z,7.90
2019-03-16T02:22:47.641Z,7.90
2019-03-16T02:25:16.630Z,7.80
2019-03-16T02:27:45.573Z,7.90
2019-03-16T02:30:14.538Z,7.80
2019-03-16T02:32:43.456Z,7.90
2019-03-16T02:35:12.350Z,7.80
2019-03-16T02:37:41.260Z,7.80
2019-03-16T02:40:10.311Z,7.80
2019-03-16T02:42:39.198Z,7.80
2019-03-16T02:45:08.199Z,7.80
2019-03-16T02:47:37.023Z,7.80
2019-03-16T02:50:06.187Z,7.90
2019-03-16T02:52:35.132Z,7.90
2019-03-16T02:55:04.504Z,7.80
2019-03-16T02:57:33.439Z,7.80
2019-03-16T03:00:02.420Z,7.90
2019-03-16T03:02:31.353Z,7.80
2019-03-16T03:05:00.655Z,7.80
2019-03-16T03:07:29.808Z,7.80
2019-03-16T03:09:58.644Z,7.80
2019-03-16T03:12:27.464Z,7.90
2019-03-16T03:14:56.292Z,7.80
2019-03-16T03:17:25.200Z,7.80
2019-03-16T03:19:54.032Z,7.80
2019-03-16T03:22:22.991Z,7.80
2019-03-16T03:24:51.965Z,7.80
2019-03-16T03:27:20.889Z,7.80
2019-03-16T03:29:49.871Z,7.80
2019-03-16T03:32:18.697Z,7.80
2019-03-16T03:34:47.598Z,7.80
2019-03-16T03:37:16.528Z,7.80
2019-03-16T03:39:45.353Z,7.80
2019-03-16T03:42:14.247Z,7.80
2019-03-16T03:44:43.084Z,7.80
2019-03-16T03:47:12.020Z,7.80
2019-03-16T03:49:40.993Z,7.80
2019-03-16T03:52:09.899Z,7.80
2019-03-16T03:54:38.833Z,7.80
2019-03-16T03:57:07.715Z,7.80
2019-03-16T03:59:36.677Z,7.80
2019-03-16T04:02:05.670Z,7.80
2019-03-16T04:04:34.693Z,7.80
2019-03-16T04:07:03.621Z,7.80
2019-03-16T04:09:32.596Z,7.80
2019-03-16T04:12:01.425Z,7.80
2019-03-16T04:14:30.305Z,7.80
2019-03-16T04:16:59.128Z,7.80
2019-03-16T04:19:28.173Z,7.80
2019-03-16T04:21:57.470Z,7.80
2019-03-16T04:24:26.385Z,7.80
2019-03-16T04:26:55.258Z,7.80
2019-03-16T04:29:24.219Z,7.80
2019-03-16T04:31:53.172Z,7.80
2019-03-16T04:34:29.171Z,7.70
2019-03-16T04:36:52.739Z,7.80
2019-03-16T04:39:21.575Z,7.70
2019-03-16T04:41:50.461Z,7.80
2019-03-16T04:44:19.313Z,7.70
2019-03-16T04:46:48.280Z,7.70
2019-03-16T04:49:17.095Z,7.70
2019-03-16T04:51:45.933Z,7.70
2019-03-16T04:54:14.770Z,7.70
2019-03-16T04:56:43.694Z,7.70
2019-03-16T04:59:12.528Z,7.70
2019-03-16T05:01:41.372Z,7.70
2019-03-16T05:04:10.217Z,7.70
2019-03-16T05:06:39.034Z,7.70
2019-03-16T05:09:08.313Z,7.70
2019-03-16T05:11:37.172Z,7.70
2019-03-16T05:14:06.139Z,7.70
2019-03-16T05:16:35.014Z,7.70
2019-03-16T05:19:03.849Z,7.70
2019-03-16T05:21:32.673Z,7.70
2019-03-16T05:24:02.861Z,7.70
2019-03-16T05:26:32.334Z,7.70
2019-03-16T05:29:01.264Z,7.70
2019-03-16T05:31:30.112Z,7.70
2019-03-16T05:33:59.022Z,7.70
2019-03-16T05:36:27.914Z,7.70
2019-03-16T05:38:56.763Z,7.70
2019-03-16T05:41:25.609Z,7.70
2019-03-16T05:43:54.489Z,7.70
2019-03-16T05:46:23.451Z,7.70
2019-03-16T05:48:52.254Z,7.70
2019-03-16T05:51:21.246Z,7.70
2019-03-16T05:53:50.082Z,7.70
2019-03-16T05:56:18.897Z,7.70
2019-03-16T05:58:47.742Z,7.70
2019-03-16T06:01:16.561Z,7.70
2019-03-16T06:03:45.464Z,7.70
2019-03-16T06:06:14.355Z,7.70
2019-03-16T06:08:43.299Z,7.70
2019-03-16T06:11:12.141Z,7.70
2019-03-16T06:13:41.054Z,7.70
2019-03-16T06:16:09.987Z,7.70
2019-03-16T06:18:38.914Z,7.70
2019-03-16T06:21:07.869Z,7.70
2019-03-16T06:23:36.817Z,7.70
2019-03-16T06:26:05.770Z,7.70
2019-03-16T06:28:34.675Z,7.70
2019-03-16T06:31:03.498Z,7.80
2019-03-16T06:33:32.394Z,7.80
2019-03-16T06:36:01.336Z,7.80
2019-03-16T06:38:30.271Z,7.80
2019-03-16T06:40:59.116Z,7.80
2019-03-16T06:43:27.945Z,7.90
2019-03-16T06:45:56.903Z,7.90
2019-03-16T06:48:25.793Z,7.90
2019-03-16T06:50:54.629Z,7.90
2019-03-16T06:53:23.714Z,8.00
2019-03-16T06:55:52.849Z,8.00
2019-03-16T06:58:21.751Z,8.00
2019-03-16T07:00:50.822Z,8.00
2019-03-16T07:03:19.658Z,8.00
2019-03-16T07:05:48.641Z,8.10
2019-03-16T07:08:17.570Z,8.10
2019-03-16T07:10:46.517Z,8.10
2019-03-16T07:13:15.411Z,8.20
2019-03-16T07:15:45.275Z,8.20
2019-03-16T07:18:14.234Z,8.20
2019-03-16T07:20:43.127Z,8.20
2019-03-16T07:23:12.126Z,8.20
2019-03-16T07:25:41.009Z,8.20
2019-03-16T07:28:09.841Z,8.30
2019-03-16T07:30:38.768Z,8.30
2019-03-16T07:33:07.594Z,8.30
2019-03-16T07:35:36.519Z,8.30
2019-03-16T07:38:05.537Z,8.30
2019-03-16T07:40:34.359Z,8.40
2019-03-16T07:43:03.209Z,8.40
2019-03-16T07:45:32.197Z,8.40
2019-03-16T07:48:01.098Z,8.40
2019-03-16T07:50:30.006Z,8.50
2019-03-16T07:52:58.934Z,8.50
2019-03-16T07:55:27.909Z,8.50
2019-03-16T07:57:56.765Z,8.50
2019-03-16T08:00:25.755Z,8.50
2019-03-16T08:02:54.706Z,8.50
2019-03-16T08:05:23.724Z,8.60
2019-03-16T08:07:52.581Z,8.60
2019-03-16T08:10:21.509Z,8.60
2019-03-16T08:12:50.358Z,8.60
2019-03-16T08:15:19.449Z,8.70
2019-03-16T08:17:48.362Z,8.70
2019-03-16T08:20:17.333Z,8.70
2019-03-16T08:22:46.288Z,8.70
2019-03-16T08:25:15.182Z,8.70
2019-03-16T08:27:53.901Z,8.70
2019-03-16T08:30:14.933Z,8.70
2019-03-16T08:32:43.906Z,8.80
2019-03-16T08:35:13.056Z,8.80
2019-03-16T08:37:41.987Z,8.80
2019-03-16T08:40:10.931Z,8.80
2019-03-16T08:42:39.861Z,8.80
2019-03-16T08:45:08.976Z,8.90
2019-03-16T08:47:38.034Z,8.90
2019-03-16T08:50:07.102Z,8.90
2019-03-16T08:52:36.081Z,8.90
2019-03-16T08:55:05.374Z,8.90
2019-03-16T08:57:34.402Z,8.90
2019-03-16T09:00:03.944Z,8.90
2019-03-16T09:02:34.697Z,9.00
2019-03-16T09:05:04.662Z,9.00
2019-03-16T09:07:33.797Z,9.00
2019-03-16T09:10:02.821Z,9.00
2019-03-16T09:12:31.739Z,9.00
2019-03-16T09:15:00.586Z,9.00
2019-03-16T09:17:29.454Z,9.10
2019-03-16T09:19:58.335Z,9.10
2019-03-16T09:22:29.600Z,9.10
2019-03-16T09:24:57.925Z,9.10
2019-03-16T09:27:31.399Z,9.10
2019-03-16T09:29:57.609Z,9.10
2019-03-16T09:32:26.501Z,9.20
2019-03-16T09:34:55.470Z,9.20
2019-03-16T09:37:24.471Z,9.20
2019-03-16T09:39:53.389Z,9.20
2019-03-16T09:42:22.348Z,9.20
2019-03-16T09:44:51.422Z,9.20
2019-03-16T09:47:20.483Z,9.20
2019-03-16T09:49:49.491Z,9.20
2019-03-16T09:52:18.560Z,9.30
2019-03-16T09:54:47.497Z,9.30
2019-03-16T09:57:16.373Z,9.30
2019-03-16T09:59:45.486Z,9.30
2019-03-16T10:02:14.421Z,9.30
2019-03-16T10:04:43.313Z,9.30
2019-03-16T10:07:12.333Z,9.40
2019-03-16T10:09:41.204Z,9.30
2019-03-16T10:12:10.044Z,9.40
2019-03-16T10:14:39.011Z,9.40
2019-03-16T10:17:08.019Z,9.40
2019-03-16T10:19:36.933Z,9.40
2019-03-16T10:22:05.839Z,9.40
2019-03-16T10:24:34.735Z,9.40
2019-03-16T10:27:03.770Z,9.50
2019-03-16T10:29:32.658Z,9.50
2019-03-16T10:32:01.527Z,9.50
2019-03-16T10:34:30.389Z,9.50
2019-03-16T10:36:59.293Z,9.50
2019-03-16T10:39:28.255Z,9.50
2019-03-16T10:41:57.275Z,9.50
2019-03-16T10:44:26.249Z,9.60
2019-03-16T10:46:55.959Z,9.60
2019-03-16T10:49:24.949Z,9.60
2019-03-16T10:51:53.802Z,9.60
2019-03-16T10:54:22.678Z,9.60
2019-03-16T10:56:51.517Z,9.60
2019-03-16T10:59:20.424Z,9.70
2019-03-16T11:01:49.404Z,9.70
2019-03-16T11:04:18.264Z,9.70
2019-03-16T11:06:47.179Z,9.70
2019-03-16T11:09:16.264Z,9.70
2019-03-16T11:11:45.123Z,9.70
2019-03-16T11:14:13.995Z,9.80
2019-03-16T11:16:42.797Z,9.80
2019-03-16T11:19:11.645Z,9.80
2019-03-16T11:21:40.553Z,9.80
2019-03-16T11:24:09.414Z,9.80
2019-03-16T11:26:38.255Z,9.80
2019-03-16T11:29:09.266Z,9.90
2019-03-16T11:31:37.715Z,9.90
2019-03-16T11:34:06.595Z,9.90
2019-03-16T11:36:35.418Z,9.90
2019-03-16T11:39:06.687Z,10.00
2019-03-16T11:41:35.538Z,10.00
2019-03-16T11:44:04.941Z,10.00
2019-03-16T11:46:34.037Z,10.00
2019-03-16T11:49:02.866Z,10.00
2019-03-16T11:51:31.685Z,10.10
2019-03-16T11:54:00.532Z,10.10
2019-03-16T11:56:29.375Z,10.10
2019-03-16T11:58:58.283Z,10.10
2019-03-16T12:01:27.097Z,10.20
2019-03-16T12:03:55.914Z,10.20
2019-03-16T12:06:24.843Z,10.20
2019-03-16T12:08:53.867Z,10.20
2019-03-16T12:11:22.846Z,10.20
2019-03-16T12:13:51.686Z,10.20
2019-03-16T12:16:20.542Z,10.20
2019-03-16T12:18:49.344Z,10.30
2019-03-16T12:21:18.194Z,10.30
2019-03-16T12:23:47.087Z,10.30
2019-03-16T12:26:16.007Z,10.30
2019-03-16T12:28:44.929Z,10.40
2019-03-16T12:31:13.810Z,10.40
2019-03-16T12:33:42.791Z,10.40
2019-03-16T12:36:11.618Z,10.40
2019-03-16T12:38:40.439Z,10.50
2019-03-16T12:41:09.332Z,10.50
2019-03-16T12:43:38.234Z,10.50
2019-03-16T12:46:07.137Z,10.50
2019-03-16T12:48:35.970Z,10.60
2019-03-16T12:51:04.885Z,10.60
2019-03-16T12:53:33.702Z,10.60
2019-03-16T12:56:02.706Z,10.60
2019-03-16T12:58:31.762Z,10.70
2019-03-16T13:01:00.656Z,10.70
2019-03-16T13:03:29.586Z,10.70
2019-03-16T13:05:58.454Z,10.70
2019-03-16T13:08:27.450Z,10.70
2019-03-16T13:10:56.341Z,10.80
2019-03-16T13:13:25.186Z,10.70
2019-03-16T13:15:54.027Z,10.80
2019-03-16T13:18:22.991Z,10.80
2019-03-16T13:20:51.878Z,10.80
2019-03-16T13:23:20.751Z,10.80
2019-03-16T13:25:49.648Z,10.80
2019-03-16T13:28:18.490Z,10.80
2019-03-16T13:30:47.502Z,10.80
2019-03-16T13:33:16.522Z,10.80
2019-03-16T13:35:45.425Z,10.90
2019-03-16T13:38:14.317Z,10.90
2019-03-16T13:40:43.277Z,10.90
2019-03-16T13:43:12.273Z,10.90
2019-03-16T13:45:41.154Z,10.90
2019-03-16T13:48:10.070Z,10.90
2019-03-16T13:50:38.890Z,10.90
2019-03-16T13:53:08.081Z,10.90
2019-03-16T13:55:36.981Z,10.90
2019-03-16T13:58:05.820Z,10.90
2019-03-16T14:00:34.742Z,10.90
2019-03-16T14:03:04.007Z,10.90
2019-03-16T14:05:32.850Z,11.00
2019-03-16T14:08:01.833Z,10.90
2019-03-16T14:10:31.194Z,11.00
2019-03-16T14:13:00.038Z,11.00
2019-03-16T14:15:28.871Z,11.00
2019-03-16T14:17:58.326Z,11.00
2019-03-16T14:20:27.660Z,11.00
2019-03-16T14:22:56.942Z,11.00
2019-03-16T14:25:25.786Z,11.00
2019-03-16T14:27:54.660Z,11.00
2019-03-16T14:30:39.771Z,11.00
2019-03-16T14:32:54.314Z,11.00
2019-03-16T14:35:23.307Z,11.10
2019-03-16T14:37:52.238Z,11.10
2019-03-16T14:40:21.331Z,11.10
2019-03-16T14:42:50.314Z,11.10
2019-03-16T14:45:19.686Z,11.10
2019-03-16T14:47:48.533Z,11.10
2019-03-16T14:50:18.018Z,11.10
2019-03-16T14:52:46.854Z,11.10
2019-03-16T14:55:16.263Z,11.10
2019-03-16T14:57:45.164Z,11.10
2019-03-16T15:00:14.862Z,11.10
2019-03-16T15:02:46.083Z,11.10
2019-03-16T15:05:14.746Z,11.10
2019-03-16T15:07:43.644Z,11.10
2019-03-16T15:10:12.592Z,11.10
2019-03-16T15:12:41.501Z,11.20
2019-03-16T15:15:11.606Z,11.20
2019-03-16T15:17:40.520Z,11.10
2019-03-16T15:20:09.890Z,11.10
2019-03-16T15:22:38.785Z,11.10
2019-03-16T15:25:11.031Z,11.10
2019-03-16T15:27:38.444Z,11.10
2019-03-16T15:30:09.652Z,11.10
2019-03-16T15:32:38.666Z,11.10
2019-03-16T15:35:08.491Z,11.10
2019-03-16T15:37:37.491Z,11.10
2019-03-16T15:40:07.190Z,11.10
2019-03-16T15:42:36.164Z,11.10
2019-03-16T15:45:06.998Z,11.10
2019-03-16T15:47:35.922Z,11.10
2019-03-16T15:50:05.154Z,11.10
2019-03-16T15:52:37.311Z,11.10
2019-03-16T15:55:05.421Z,11.10
2019-03-16T15:57:34.411Z,11.10
2019-03-16T16:00:04.107Z,11.10
2019-03-16T16:02:33.136Z,11.10
2019-03-16T16:05:01.973Z,11.10
2019-03-16T16:07:30.824Z,11.10
2019-03-16T16:09:59.674Z,11.10
2019-03-16T16:12:28.684Z,11.00
2019-03-16T16:14:57.614Z,11.00
2019-03-16T16:17:26.448Z,11.00
2019-03-16T16:19:55.533Z,11.00
2019-03-16T16:22:24.453Z,11.00
2019-03-16T16:24:53.361Z,11.00
2019-03-16T16:27:24.106Z,11.00
2019-03-16T16:29:52.870Z,11.00
2019-03-16T16:32:21.775Z,11.00
2019-03-16T16:34:50.698Z,11.00
2019-03-16T16:37:19.625Z,11.00
2019-03-16T16:39:49.098Z,11.00
2019-03-16T16:42:17.990Z,10.90
2019-03-16T16:44:46.816Z,10.90
2019-03-16T16:47:15.778Z,10.90
2019-03-16T16:49:44.575Z,10.90
2019-03-16T16:52:13.469Z,10.90
2019-03-16T16:54:42.369Z,10.90
2019-03-16T16:57:11.339Z,10.90
2019-03-16T16:59:40.202Z,10.80
2019-03-16T17:02:09.092Z,10.80
2019-03-16T17:04:37.948Z,10.80
2019-03-16T17:07:06.841Z,10.80
2019-03-16T17:09:35.721Z,10.80
2019-03-16T17:12:04.709Z,10.80
2019-03-16T17:14:33.603Z,10.80
2019-03-16T17:17:02.506Z,10.80
2019-03-16T17:19:31.334Z,10.80
2019-03-16T17:22:00.198Z,10.80
2019-03-16T17:24:29.035Z,10.80
2019-03-16T17:26:57.928Z,10.80
2019-03-16T17:29:26.852Z,10.80
2019-03-16T17:31:55.720Z,10.70
2019-03-16T17:34:24.571Z,10.70
2019-03-16T17:36:53.467Z,10.70
2019-03-16T17:39:22.391Z,10.70
2019-03-16T17:41:51.277Z,10.70
2019-03-16T17:44:20.274Z,10.70
2019-03-16T17:46:49.375Z,10.70
2019-03-16T17:49:18.374Z,10.70
2019-03-16T17:51:47.208Z,10.70
2019-03-16T17:54:16.241Z,10.70
2019-03-16T17:56:45.174Z,10.60
2019-03-16T17:59:14.094Z,10.60
2019-03-16T18:01:54.210Z,10.60
2019-03-16T18:04:13.722Z,10.60
2019-03-16T18:06:42.562Z,10.60
2019-03-16T18:09:11.504Z,10.60
2019-03-16T18:11:40.340Z,10.60
2019-03-16T18:14:09.271Z,10.60
2019-03-16T18:16:38.193Z,10.60
2019-03-16T18:19:07.198Z,10.50
2019-03-16T18:21:36.046Z,10.50
2019-03-16T18:24:05.066Z,10.50
2019-03-16T18:26:33.902Z,10.50
2019-03-16T18:29:02.721Z,10.50
2019-03-16T18:31:31.575Z,10.50
2019-03-16T18:34:00.491Z,10.50
2019-03-16T18:36:29.481Z,10.50
2019-03-16T18:38:58.515Z,10.50
2019-03-16T18:41:27.339Z,10.50
2019-03-16T18:43:56.166Z,10.50
2019-03-16T18:46:25.017Z,10.50
2019-03-16T18:48:53.866Z,10.50
2019-03-16T18:51:22.834Z,10.50
2019-03-16T18:53:51.670Z,10.50
2019-03-16T18:56:20.562Z,10.50
2019-03-16T18:58:49.426Z,10.50
2019-03-16T19:01:18.480Z,10.50
2019-03-16T19:03:47.305Z,10.50
2019-03-16T19:06:16.128Z,10.40
2019-03-16T19:08:44.950Z,10.40
2019-03-16T19:11:13.905Z,10.40
2019-03-16T19:13:42.890Z,10.50
2019-03-16T19:16:11.726Z,10.50
2019-03-16T19:18:40.693Z,10.40
2019-03-16T19:21:09.699Z,10.40
2019-03-16T19:23:38.552Z,10.40
2019-03-16T19:26:07.464Z,10.40
2019-03-16T19:28:36.404Z,10.40
2019-03-16T19:31:05.406Z,10.40
2019-03-16T19:33:34.527Z,10.40
2019-03-16T19:36:03.374Z,10.40
2019-03-16T19:38:32.181Z,10.40
2019-03-16T19:41:01.045Z,10.40
2019-03-16T19:43:29.898Z,10.40
2019-03-16T19:46:00.594Z,10.40
2019-03-16T19:48:29.486Z,10.40
2019-03-16T19:50:58.475Z,10.40
2019-03-16T19:53:27.344Z,10.40
2019-03-16T19:55:56.258Z,10.40
2019-03-16T19:58:25.369Z,10.40
2019-03-16T20:00:54.277Z,10.40
2019-03-16T20:03:23.253Z,10.40
2019-03-16T20:05:52.093Z,10.40
2019-03-16T20:08:20.965Z,10.40
2019-03-16T20:10:49.798Z,10.30
2019-03-16T20:13:18.689Z,10.30
2019-03-16T20:15:47.537Z,10.30
2019-03-16T20:18:16.394Z,10.30
2019-03-16T20:20:45.474Z,10.30
2019-03-16T20:23:14.306Z,10.30
2019-03-16T20:25:43.158Z,10.30
2019-03-16T20:28:12.146Z,10.30
2019-03-16T20:30:40.967Z,10.30
2019-03-16T20:33:09.949Z,10.30
2019-03-16T20:35:38.953Z,10.30
2019-03-16T20:38:07.854Z,10.30
2019-03-16T20:40:36.829Z,10.30
2019-03-16T20:43:05.899Z,10.20
2019-03-16T20:45:35.285Z,10.20
2019-03-16T20:48:04.467Z,10.20
2019-03-16T20:50:33.361Z,10.20
2019-03-16T20:53:02.214Z,10.20
2019-03-16T20:55:31.056Z,10.20
2019-03-16T20:57:59.974Z,10.20
2019-03-16T21:00:29.259Z,10.20
2019-03-16T21:02:58.076Z,10.20
2019-03-16T21:05:26.961Z,10.10
2019-03-16T21:07:55.965Z,10.10
2019-03-16T21:10:24.846Z,10.10
2019-03-16T21:12:53.927Z,10.10
2019-03-16T21:15:22.859Z,10.10
2019-03-16T21:17:51.789Z,10.10
2019-03-16T21:20:20.740Z,10.10
2019-03-16T21:22:49.759Z,10.10
2019-03-16T21:25:18.820Z,10.10
2019-03-16T21:27:47.726Z,10.00
2019-03-16T21:30:16.707Z,10.00
2019-03-16T21:32:45.671Z,10.00
2019-03-16T21:35:14.569Z,10.00
2019-03-16T21:37:43.543Z,10.00
2019-03-16T21:40:12.579Z,10.00
2019-03-16T21:42:41.549Z,10.00
2019-03-16T21:45:10.533Z,10.00
2019-03-16T21:47:39.520Z,10.00
2019-03-16T21:50:09.167Z,10.00
2019-03-16T21:52:38.146Z,9.90
2019-03-16T21:55:07.645Z,9.90
2019-03-16T21:57:36.813Z,9.90
2019-03-16T22:00:07.544Z,9.90
2019-03-16T22:02:36.457Z,9.90
2019-03-16T22:05:05.990Z,9.90
2019-03-16T22:07:34.821Z,9.90
2019-03-16T22:10:04.343Z,9.90
2019-03-16T22:12:33.225Z,9.90
2019-03-16T22:15:02.066Z,9.90
2019-03-16T22:17:30.916Z,9.90
2019-03-16T22:19:59.784Z,9.90
2019-03-16T22:22:28.755Z,9.90
2019-03-16T22:24:57.593Z,9.90
2019-03-16T22:27:26.457Z,9.90
2019-03-16T22:29:55.288Z,9.80
2019-03-16T22:32:24.299Z,9.90
2019-03-16T22:34:53.174Z,9.90
2019-03-16T22:37:22.163Z,9.90
2019-03-16T22:39:51.070Z,9.90
2019-03-16T22:42:19.890Z,9.90
2019-03-16T22:44:48.944Z,9.90
2019-03-16T22:47:17.754Z,9.90
2019-03-16T22:49:46.676Z,9.90
2019-03-16T22:52:15.578Z,9.90
2019-03-16T22:54:44.397Z,9.90
2019-03-16T22:57:13.267Z,9.90
2019-03-16T22:59:42.129Z,9.90
2019-03-16T23:02:11.447Z,9.90
2019-03-16T23:04:40.252Z,9.90
2019-03-16T23:07:09.233Z,9.90
2019-03-16T23:09:38.259Z,9.90
2019-03-16T23:12:07.536Z,9.90
2019-03-16T23:14:36.574Z,9.90
2019-03-16T23:17:05.578Z,9.90
2019-03-16T23:19:34.529Z,9.90
2019-03-16T23:22:03.545Z,9.90
2019-03-16T23:24:32.400Z,9.90
2019-03-16T23:27:01.526Z,9.90
2019-03-16T23:29:30.475Z,9.90
2019-03-16T23:31:59.372Z,9.90
2019-03-16T23:34:28.250Z,9.90
2019-03-16T23:36:57.303Z,9.90
2019-03-16T23:39:26.201Z,9.90
2019-03-16T23:41:55.263Z,9.90
2019-03-16T23:44:24.163Z,9.90
2019-03-16T23:46:53.006Z,9.90
2019-03-16T23:49:21.969Z,9.90
2019-03-16T23:51:50.838Z,9.90
2019-03-16T23:54:19.703Z,9.90
2019-03-16T23:56:48.568Z,9.90
2019-03-16T23:59:17.586Z,10.00
